sensor_id;sensor_type;location;lat;lon;timestamp;P1;durP1;ratioP1;P2;durP2;ratioP2
3293;SDS011;1659;51.470;6.770;2023-11-19T00:01:31;26.50;;;14.90;;
3293;SDS011;1659;51.470;6.770;2023-11-19T00:03:59;28.90;;;15.73;;
3293;SDS011;1659;51.470;6.770;2023-11-19T00:06:26;25.50;;;15.73;;
3293;SDS011;1659;51.470;6.770;2023-11-19T00:08:53;26.43;;;14.80;;
3293;SDS011;1659;51.470;6.770;2023-11-19T00:11:19;24.87;;;14.20;;
3293;SDS011;1659;51.470;6.770;2023-11-19T00:13:46;24.50;;;13.93;;
3293;SDS011;1659;51.470;6.770;2023-11-19T00:16:12;25.33;;;13.87;;
3293;SDS011;1659;51.470;6.770;2023-11-19T00:18:39;22.40;;;13.13;;
3293;SDS011;1659;51.470;6.770;2023-11-19T00:21:07;26.57;;;12.57;;
3293;SDS011;1659;51.470;6.770;2023-11-19T00:23:35;22.10;;;12.20;;
3293;SDS011;1659;51.470;6.770;2023-11-19T00:26:01;23.53;;;11.93;;
3293;SDS011;1659;51.470;6.770;2023-11-19T00:28:31;22.17;;;11.00;;
3293;SDS011;1659;51.470;6.770;2023-11-19T00:30:58;19.80;;;11.17;;
3293;SDS011;1659;51.470;6.770;2023-11-19T00:33:24;16.73;;;10.77;;
3293;SDS011;1659;51.470;6.770;2023-11-19T00:35:51;13.73;;;9.63;;
3293;SDS011;1659;51.470;6.770;2023-11-19T00:38:19;13.67;;;9.77;;
3293;SDS011;1659;51.470;6.770;2023-11-19T00:40:46;12.67;;;9.40;;
3293;SDS011;1659;51.470;6.770;2023-11-19T00:43:12;18.33;;;10.07;;
3293;SDS011;1659;51.470;6.770;2023-11-19T00:45:39;12.73;;;9.03;;
3293;SDS011;1659;51.470;6.770;2023-11-19T00:48:05;13.07;;;8.97;;
3293;SDS011;1659;51.470;6.770;2023-11-19T00:50:32;14.33;;;8.60;;
3293;SDS011;1659;51.470;6.770;2023-11-19T00:52:59;12.27;;;9.13;;
3293;SDS011;1659;51.470;6.770;2023-11-19T00:55:28;10.40;;;8.00;;
3293;SDS011;1659;51.470;6.770;2023-11-19T00:57:54;11.80;;;8.93;;
3293;SDS011;1659;51.470;6.770;2023-11-19T01:00:21;14.80;;;9.40;;
3293;SDS011;1659;51.470;6.770;2023-11-19T01:02:49;12.13;;;8.57;;
3293;SDS011;1659;51.470;6.770;2023-11-19T01:05:16;11.37;;;8.07;;
3293;SDS011;1659;51.470;6.770;2023-11-19T01:07:46;11.70;;;7.93;;
3293;SDS011;1659;51.470;6.770;2023-11-19T01:10:13;14.07;;;8.60;;
3293;SDS011;1659;51.470;6.770;2023-11-19T01:12:42;11.07;;;8.30;;
3293;SDS011;1659;51.470;6.770;2023-11-19T01:15:09;11.90;;;7.70;;
3293;SDS011;1659;51.470;6.770;2023-11-19T01:17:36;11.83;;;7.90;;
3293;SDS011;1659;51.470;6.770;2023-11-19T01:20:03;9.97;;;7.30;;
3293;SDS011;1659;51.470;6.770;2023-11-19T01:22:31;14.00;;;9.10;;
3293;SDS011;1659;51.470;6.770;2023-11-19T01:24:58;14.50;;;8.23;;
3293;SDS011;1659;51.470;6.770;2023-11-19T01:27:25;12.90;;;7.60;;
3293;SDS011;1659;51.470;6.770;2023-11-19T01:29:53;8.83;;;6.90;;
3293;SDS011;1659;51.470;6.770;2023-11-19T01:32:19;9.13;;;6.63;;
3293;SDS011;1659;51.470;6.770;2023-11-19T01:34:46;9.20;;;6.77;;
3293;SDS011;1659;51.470;6.770;2023-11-19T01:37:13;8.10;;;6.23;;
3293;SDS011;1659;51.470;6.770;2023-11-19T01:39:39;10.60;;;6.97;;
3293;SDS011;1659;51.470;6.770;2023-11-19T01:42:06;11.77;;;7.23;;
3293;SDS011;1659;51.470;6.770;2023-11-19T01:44:32;10.03;;;7.40;;
3293;SDS011;1659;51.470;6.770;2023-11-19T01:47:00;7.73;;;6.20;;
3293;SDS011;1659;51.470;6.770;2023-11-19T01:49:29;9.47;;;7.00;;
3293;SDS011;1659;51.470;6.770;2023-11-19T01:51:58;6.77;;;6.07;;
3293;SDS011;1659;51.470;6.770;2023-11-19T01:54:25;8.60;;;6.90;;
3293;SDS011;1659;51.470;6.770;2023-11-19T01:56:53;8.67;;;6.73;;
3293;SDS011;1659;51.470;6.770;2023-11-19T01:59:23;9.10;;;6.53;;
3293;SDS011;1659;51.470;6.770;2023-11-19T02:01:52;10.47;;;6.80;;
3293;SDS011;1659;51.470;6.770;2023-11-19T02:04:20;7.13;;;6.13;;
3293;SDS011;1659;51.470;6.770;2023-11-19T02:06:47;9.40;;;6.77;;
3293;SDS011;1659;51.470;6.770;2023-11-19T02:09:18;8.73;;;6.77;;
3293;SDS011;1659;51.470;6.770;2023-11-19T02:11:45;9.63;;;6.33;;
3293;SDS011;1659;51.470;6.770;2023-11-19T02:14:14;11.07;;;8.07;;
3293;SDS011;1659;51.470;6.770;2023-11-19T02:16:41;7.80;;;7.00;;
3293;SDS011;1659;51.470;6.770;2023-11-19T02:19:07;11.77;;;6.77;;
3293;SDS011;1659;51.470;6.770;2023-11-19T02:21:37;12.10;;;6.60;;
3293;SDS011;1659;51.470;6.770;2023-11-19T02:24:05;10.17;;;6.07;;
3293;SDS011;1659;51.470;6.770;2023-11-19T02:26:36;12.80;;;6.77;;
3293;SDS011;1659;51.470;6.770;2023-11-19T02:29:08;8.70;;;5.70;;
3293;SDS011;1659;51.470;6.770;2023-11-19T02:31:35;10.27;;;5.93;;
3293;SDS011;1659;51.470;6.770;2023-11-19T02:34:01;6.67;;;5.57;;
3293;SDS011;1659;51.470;6.770;2023-11-19T02:36:28;7.90;;;5.40;;
3293;SDS011;1659;51.470;6.770;2023-11-19T02:38:55;7.90;;;4.90;;
3293;SDS011;1659;51.470;6.770;2023-11-19T02:41:21;12.53;;;4.53;;
3293;SDS011;1659;51.470;6.770;2023-11-19T02:43:48;7.60;;;4.70;;
3293;SDS011;1659;51.470;6.770;2023-11-19T02:46:16;16.90;;;5.20;;
3293;SDS011;1659;51.470;6.770;2023-11-19T02:48:42;9.63;;;4.83;;
3293;SDS011;1659;51.470;6.770;2023-11-19T02:51:09;11.23;;;4.97;;
3293;SDS011;1659;51.470;6.770;2023-11-19T02:53:36;9.20;;;4.60;;
3293;SDS011;1659;51.470;6.770;2023-11-19T02:56:04;14.40;;;5.40;;
3293;SDS011;1659;51.470;6.770;2023-11-19T02:58:40;7.60;;;4.83;;
3293;SDS011;1659;51.470;6.770;2023-11-19T03:01:09;16.73;;;5.00;;
3293;SDS011;1659;51.470;6.770;2023-11-19T03:03:45;11.60;;;4.77;;
3293;SDS011;1659;51.470;6.770;2023-11-19T03:06:18;16.63;;;6.13;;
3293;SDS011;1659;51.470;6.770;2023-11-19T03:08:46;15.23;;;5.03;;
3293;SDS011;1659;51.470;6.770;2023-11-19T03:11:13;11.47;;;5.97;;
3293;SDS011;1659;51.470;6.770;2023-11-19T03:13:40;15.97;;;5.23;;
3293;SDS011;1659;51.470;6.770;2023-11-19T03:16:07;9.67;;;4.60;;
3293;SDS011;1659;51.470;6.770;2023-11-19T03:18:33;11.03;;;5.50;;
3293;SDS011;1659;51.470;6.770;2023-11-19T03:21:01;19.10;;;5.40;;
3293;SDS011;1659;51.470;6.770;2023-11-19T03:23:28;16.37;;;6.57;;
3293;SDS011;1659;51.470;6.770;2023-11-19T03:25:55;15.67;;;5.60;;
3293;SDS011;1659;51.470;6.770;2023-11-19T03:28:22;16.63;;;6.90;;
3293;SDS011;1659;51.470;6.770;2023-11-19T03:30:48;23.77;;;7.73;;
3293;SDS011;1659;51.470;6.770;2023-11-19T03:33:15;19.97;;;7.23;;
3293;SDS011;1659;51.470;6.770;2023-11-19T03:35:41;18.83;;;8.20;;
3293;SDS011;1659;51.470;6.770;2023-11-19T03:38:09;29.33;;;7.30;;
3293;SDS011;1659;51.470;6.770;2023-11-19T03:40:36;23.00;;;11.63;;
3293;SDS011;1659;51.470;6.770;2023-11-19T03:43:04;59.43;;;19.27;;
3293;SDS011;1659;51.470;6.770;2023-11-19T03:45:30;39.83;;;12.20;;
3293;SDS011;1659;51.470;6.770;2023-11-19T03:47:57;30.63;;;9.90;;
3293;SDS011;1659;51.470;6.770;2023-11-19T03:50:23;25.70;;;9.40;;
3293;SDS011;1659;51.470;6.770;2023-11-19T03:52:50;30.87;;;8.27;;
3293;SDS011;1659;51.470;6.770;2023-11-19T03:55:19;33.43;;;8.40;;
3293;SDS011;1659;51.470;6.770;2023-11-19T03:57:45;20.83;;;6.20;;
3293;SDS011;1659;51.470;6.770;2023-11-19T04:00:13;29.23;;;8.40;;
3293;SDS011;1659;51.470;6.770;2023-11-19T04:02:40;23.47;;;8.10;;
3293;SDS011;1659;51.470;6.770;2023-11-19T04:05:07;24.53;;;9.17;;
3293;SDS011;1659;51.470;6.770;2023-11-19T04:07:34;23.93;;;8.90;;
3293;SDS011;1659;51.470;6.770;2023-11-19T04:10:01;22.63;;;7.40;;
3293;SDS011;1659;51.470;6.770;2023-11-19T04:12:29;35.00;;;9.70;;
3293;SDS011;1659;51.470;6.770;2023-11-19T04:14:56;26.73;;;6.83;;
3293;SDS011;1659;51.470;6.770;2023-11-19T04:17:22;24.83;;;7.57;;
3293;SDS011;1659;51.470;6.770;2023-11-19T04:19:50;24.97;;;6.70;;
3293;SDS011;1659;51.470;6.770;2023-11-19T04:22:16;25.20;;;6.77;;
3293;SDS011;1659;51.470;6.770;2023-11-19T04:24:43;24.80;;;7.27;;
3293;SDS011;1659;51.470;6.770;2023-11-19T04:27:10;34.20;;;9.07;;
3293;SDS011;1659;51.470;6.770;2023-11-19T04:29:38;21.23;;;7.97;;
3293;SDS011;1659;51.470;6.770;2023-11-19T04:32:05;34.40;;;9.17;;
3293;SDS011;1659;51.470;6.770;2023-11-19T04:34:32;37.13;;;8.30;;
3293;SDS011;1659;51.470;6.770;2023-11-19T04:36:59;33.20;;;8.63;;
3293;SDS011;1659;51.470;6.770;2023-11-19T04:39:28;25.20;;;8.40;;
3293;SDS011;1659;51.470;6.770;2023-11-19T04:41:55;44.83;;;8.97;;
3293;SDS011;1659;51.470;6.770;2023-11-19T04:44:21;33.53;;;8.00;;
3293;SDS011;1659;51.470;6.770;2023-11-19T04:46:49;27.63;;;7.10;;
3293;SDS011;1659;51.470;6.770;2023-11-19T04:49:16;40.70;;;8.00;;
3293;SDS011;1659;51.470;6.770;2023-11-19T04:51:44;21.00;;;7.37;;
3293;SDS011;1659;51.470;6.770;2023-11-19T04:54:12;22.67;;;6.67;;
3293;SDS011;1659;51.470;6.770;2023-11-19T04:56:39;25.37;;;7.00;;
3293;SDS011;1659;51.470;6.770;2023-11-19T04:59:06;30.57;;;6.80;;
3293;SDS011;1659;51.470;6.770;2023-11-19T05:01:33;38.97;;;6.43;;
3293;SDS011;1659;51.470;6.770;2023-11-19T05:04:02;40.40;;;7.30;;
3293;SDS011;1659;51.470;6.770;2023-11-19T05:06:28;31.40;;;7.00;;
3293;SDS011;1659;51.470;6.770;2023-11-19T05:08:56;28.37;;;7.37;;
3293;SDS011;1659;51.470;6.770;2023-11-19T05:11:23;32.13;;;8.87;;
3293;SDS011;1659;51.470;6.770;2023-11-19T05:13:49;24.33;;;7.33;;
3293;SDS011;1659;51.470;6.770;2023-11-19T05:16:16;45.03;;;8.73;;
3293;SDS011;1659;51.470;6.770;2023-11-19T05:18:42;36.57;;;9.33;;
3293;SDS011;1659;51.470;6.770;2023-11-19T05:21:11;35.53;;;8.00;;
3293;SDS011;1659;51.470;6.770;2023-11-19T05:23:38;31.80;;;6.30;;
3293;SDS011;1659;51.470;6.770;2023-11-19T05:26:06;28.13;;;6.87;;
3293;SDS011;1659;51.470;6.770;2023-11-19T05:28:33;32.77;;;6.17;;
3293;SDS011;1659;51.470;6.770;2023-11-19T05:31:00;35.03;;;7.50;;
3293;SDS011;1659;51.470;6.770;2023-11-19T05:33:26;30.73;;;7.80;;
3293;SDS011;1659;51.470;6.770;2023-11-19T05:35:53;42.33;;;8.70;;
3293;SDS011;1659;51.470;6.770;2023-11-19T05:38:20;45.53;;;8.83;;
3293;SDS011;1659;51.470;6.770;2023-11-19T05:40:47;38.23;;;7.90;;
3293;SDS011;1659;51.470;6.770;2023-11-19T05:43:14;27.83;;;7.27;;
3293;SDS011;1659;51.470;6.770;2023-11-19T05:45:41;34.77;;;8.23;;
3293;SDS011;1659;51.470;6.770;2023-11-19T05:48:08;36.13;;;7.30;;
3293;SDS011;1659;51.470;6.770;2023-11-19T05:50:35;25.70;;;6.63;;
3293;SDS011;1659;51.470;6.770;2023-11-19T05:53:01;25.57;;;7.63;;
3293;SDS011;1659;51.470;6.770;2023-11-19T05:55:33;26.90;;;6.83;;
3293;SDS011;1659;51.470;6.770;2023-11-19T05:58:00;38.90;;;6.90;;
3293;SDS011;1659;51.470;6.770;2023-11-19T06:00:27;18.70;;;6.67;;
3293;SDS011;1659;51.470;6.770;2023-11-19T06:02:53;31.40;;;6.40;;
3293;SDS011;1659;51.470;6.770;2023-11-19T06:05:20;29.17;;;7.27;;
3293;SDS011;1659;51.470;6.770;2023-11-19T06:07:46;27.67;;;6.70;;
3293;SDS011;1659;51.470;6.770;2023-11-19T06:10:13;26.53;;;6.93;;
3293;SDS011;1659;51.470;6.770;2023-11-19T06:12:43;28.17;;;6.73;;
3293;SDS011;1659;51.470;6.770;2023-11-19T06:15:11;28.10;;;6.20;;
3293;SDS011;1659;51.470;6.770;2023-11-19T06:17:38;23.33;;;8.20;;
3293;SDS011;1659;51.470;6.770;2023-11-19T06:20:05;32.63;;;7.60;;
3293;SDS011;1659;51.470;6.770;2023-11-19T06:22:32;31.77;;;7.00;;
3293;SDS011;1659;51.470;6.770;2023-11-19T06:24:59;20.13;;;7.20;;
3293;SDS011;1659;51.470;6.770;2023-11-19T06:27:25;25.40;;;6.93;;
3293;SDS011;1659;51.470;6.770;2023-11-19T06:29:53;34.60;;;7.33;;
3293;SDS011;1659;51.470;6.770;2023-11-19T06:32:20;21.33;;;6.40;;
3293;SDS011;1659;51.470;6.770;2023-11-19T06:34:47;29.03;;;6.73;;
3293;SDS011;1659;51.470;6.770;2023-11-19T06:37:13;36.07;;;7.00;;
3293;SDS011;1659;51.470;6.770;2023-11-19T06:39:40;23.97;;;7.17;;
3293;SDS011;1659;51.470;6.770;2023-11-19T06:42:06;23.67;;;6.40;;
3293;SDS011;1659;51.470;6.770;2023-11-19T06:44:33;25.97;;;6.70;;
3293;SDS011;1659;51.470;6.770;2023-11-19T06:47:01;26.30;;;5.70;;
3293;SDS011;1659;51.470;6.770;2023-11-19T06:49:27;22.93;;;6.33;;
3293;SDS011;1659;51.470;6.770;2023-11-19T06:51:54;29.40;;;7.10;;
3293;SDS011;1659;51.470;6.770;2023-11-19T06:54:21;33.77;;;7.83;;
3293;SDS011;1659;51.470;6.770;2023-11-19T06:56:48;27.60;;;7.53;;
3293;SDS011;1659;51.470;6.770;2023-11-19T06:59:14;22.80;;;6.67;;
3293;SDS011;1659;51.470;6.770;2023-11-19T07:01:41;19.53;;;5.90;;
3293;SDS011;1659;51.470;6.770;2023-11-19T07:04:11;20.87;;;6.50;;
3293;SDS011;1659;51.470;6.770;2023-11-19T07:06:38;28.77;;;6.27;;
3293;SDS011;1659;51.470;6.770;2023-11-19T07:09:06;30.30;;;9.07;;
3293;SDS011;1659;51.470;6.770;2023-11-19T07:11:35;28.47;;;6.43;;
3293;SDS011;1659;51.470;6.770;2023-11-19T07:14:03;19.60;;;6.73;;
3293;SDS011;1659;51.470;6.770;2023-11-19T07:16:31;17.80;;;5.33;;
3293;SDS011;1659;51.470;6.770;2023-11-19T07:18:57;20.77;;;5.60;;
3293;SDS011;1659;51.470;6.770;2023-11-19T07:21:26;28.53;;;6.07;;
3293;SDS011;1659;51.470;6.770;2023-11-19T07:23:54;34.67;;;8.47;;
3293;SDS011;1659;51.470;6.770;2023-11-19T07:26:20;23.67;;;7.37;;
3293;SDS011;1659;51.470;6.770;2023-11-19T07:28:47;27.77;;;8.13;;
3293;SDS011;1659;51.470;6.770;2023-11-19T07:31:14;36.17;;;7.20;;
3293;SDS011;1659;51.470;6.770;2023-11-19T07:33:40;36.23;;;6.60;;
3293;SDS011;1659;51.470;6.770;2023-11-19T07:36:08;26.53;;;6.13;;
3293;SDS011;1659;51.470;6.770;2023-11-19T07:38:36;25.10;;;7.17;;
3293;SDS011;1659;51.470;6.770;2023-11-19T07:41:03;45.90;;;7.00;;
3293;SDS011;1659;51.470;6.770;2023-11-19T07:43:31;26.77;;;7.53;;
3293;SDS011;1659;51.470;6.770;2023-11-19T07:45:58;25.40;;;5.97;;
3293;SDS011;1659;51.470;6.770;2023-11-19T07:48:25;28.10;;;7.00;;
3293;SDS011;1659;51.470;6.770;2023-11-19T07:50:52;27.03;;;5.67;;
3293;SDS011;1659;51.470;6.770;2023-11-19T07:53:19;35.90;;;6.50;;
3293;SDS011;1659;51.470;6.770;2023-11-19T07:55:47;13.73;;;4.60;;
3293;SDS011;1659;51.470;6.770;2023-11-19T07:58:14;25.17;;;5.30;;
3293;SDS011;1659;51.470;6.770;2023-11-19T08:00:40;26.67;;;5.67;;
3293;SDS011;1659;51.470;6.770;2023-11-19T08:03:07;26.00;;;5.00;;
3293;SDS011;1659;51.470;6.770;2023-11-19T08:05:33;25.43;;;5.17;;
3293;SDS011;1659;51.470;6.770;2023-11-19T08:07:59;13.70;;;5.07;;
3293;SDS011;1659;51.470;6.770;2023-11-19T08:10:26;25.47;;;7.60;;
3293;SDS011;1659;51.470;6.770;2023-11-19T08:12:55;47.73;;;11.30;;
3293;SDS011;1659;51.470;6.770;2023-11-19T08:15:21;34.70;;;6.53;;
3293;SDS011;1659;51.470;6.770;2023-11-19T08:17:48;29.53;;;7.57;;
3293;SDS011;1659;51.470;6.770;2023-11-19T08:20:14;27.10;;;7.40;;
3293;SDS011;1659;51.470;6.770;2023-11-19T08:22:41;43.57;;;8.90;;
3293;SDS011;1659;51.470;6.770;2023-11-19T08:25:08;31.83;;;9.00;;
3293;SDS011;1659;51.470;6.770;2023-11-19T08:27:35;32.63;;;8.80;;
3293;SDS011;1659;51.470;6.770;2023-11-19T08:30:03;32.17;;;8.10;;
3293;SDS011;1659;51.470;6.770;2023-11-19T08:32:31;23.37;;;7.60;;
3293;SDS011;1659;51.470;6.770;2023-11-19T08:34:57;29.07;;;5.60;;
3293;SDS011;1659;51.470;6.770;2023-11-19T08:37:24;27.50;;;6.77;;
3293;SDS011;1659;51.470;6.770;2023-11-19T08:39:51;25.63;;;6.10;;
3293;SDS011;1659;51.470;6.770;2023-11-19T08:42:18;24.63;;;5.60;;
3293;SDS011;1659;51.470;6.770;2023-11-19T08:44:48;22.47;;;5.90;;
3293;SDS011;1659;51.470;6.770;2023-11-19T08:47:17;26.40;;;5.93;;
3293;SDS011;1659;51.470;6.770;2023-11-19T08:49:43;23.43;;;6.77;;
3293;SDS011;1659;51.470;6.770;2023-11-19T08:52:10;27.43;;;5.67;;
3293;SDS011;1659;51.470;6.770;2023-11-19T08:54:37;31.37;;;6.70;;
3293;SDS011;1659;51.470;6.770;2023-11-19T08:57:03;20.27;;;6.27;;
3293;SDS011;1659;51.470;6.770;2023-11-19T08:59:32;19.33;;;6.10;;
3293;SDS011;1659;51.470;6.770;2023-11-19T09:01:59;27.87;;;5.00;;
3293;SDS011;1659;51.470;6.770;2023-11-19T09:04:27;19.60;;;5.87;;
3293;SDS011;1659;51.470;6.770;2023-11-19T09:06:53;24.40;;;5.17;;
3293;SDS011;1659;51.470;6.770;2023-11-19T09:09:20;33.80;;;9.77;;
3293;SDS011;1659;51.470;6.770;2023-11-19T09:11:47;24.90;;;6.70;;
3293;SDS011;1659;51.470;6.770;2023-11-19T09:14:13;16.10;;;5.63;;
3293;SDS011;1659;51.470;6.770;2023-11-19T09:16:40;27.53;;;6.43;;
3293;SDS011;1659;51.470;6.770;2023-11-19T09:19:07;19.80;;;5.87;;
3293;SDS011;1659;51.470;6.770;2023-11-19T09:21:35;25.53;;;6.77;;
3293;SDS011;1659;51.470;6.770;2023-11-19T09:24:03;24.07;;;5.67;;
3293;SDS011;1659;51.470;6.770;2023-11-19T09:26:32;27.30;;;6.00;;
3293;SDS011;1659;51.470;6.770;2023-11-19T09:28:59;19.47;;;4.67;;
3293;SDS011;1659;51.470;6.770;2023-11-19T09:31:25;19.50;;;5.40;;
3293;SDS011;1659;51.470;6.770;2023-11-19T09:33:52;19.97;;;5.60;;
3293;SDS011;1659;51.470;6.770;2023-11-19T09:36:19;24.20;;;5.50;;
3293;SDS011;1659;51.470;6.770;2023-11-19T09:38:46;20.40;;;5.20;;
3293;SDS011;1659;51.470;6.770;2023-11-19T09:41:13;21.67;;;5.93;;
3293;SDS011;1659;51.470;6.770;2023-11-19T09:43:40;33.53;;;6.00;;
3293;SDS011;1659;51.470;6.770;2023-11-19T09:46:09;16.40;;;5.60;;
3293;SDS011;1659;51.470;6.770;2023-11-19T09:48:37;25.87;;;6.20;;
3293;SDS011;1659;51.470;6.770;2023-11-19T09:51:07;29.40;;;5.60;;
3293;SDS011;1659;51.470;6.770;2023-11-19T09:53:34;37.27;;;5.77;;
3293;SDS011;1659;51.470;6.770;2023-11-19T09:56:03;13.97;;;4.90;;
3293;SDS011;1659;51.470;6.770;2023-11-19T09:58:30;14.30;;;5.70;;
3293;SDS011;1659;51.470;6.770;2023-11-19T10:00:58;22.10;;;6.20;;
3293;SDS011;1659;51.470;6.770;2023-11-19T10:03:25;17.23;;;6.43;;
3293;SDS011;1659;51.470;6.770;2023-11-19T10:05:53;16.93;;;5.80;;
3293;SDS011;1659;51.470;6.770;2023-11-19T10:08:21;28.47;;;8.10;;
3293;SDS011;1659;51.470;6.770;2023-11-19T10:10:48;30.67;;;6.30;;
3293;SDS011;1659;51.470;6.770;2023-11-19T10:13:16;18.97;;;5.33;;
3293;SDS011;1659;51.470;6.770;2023-11-19T10:15:42;22.87;;;6.30;;
3293;SDS011;1659;51.470;6.770;2023-11-19T10:18:10;27.27;;;6.70;;
3293;SDS011;1659;51.470;6.770;2023-11-19T10:20:37;23.80;;;5.50;;
3293;SDS011;1659;51.470;6.770;2023-11-19T10:23:04;38.87;;;8.63;;
3293;SDS011;1659;51.470;6.770;2023-11-19T10:25:30;24.07;;;5.67;;
3293;SDS011;1659;51.470;6.770;2023-11-19T10:27:59;30.03;;;7.70;;
3293;SDS011;1659;51.470;6.770;2023-11-19T10:30:28;24.13;;;6.20;;
3293;SDS011;1659;51.470;6.770;2023-11-19T10:33:02;30.73;;;6.97;;
3293;SDS011;1659;51.470;6.770;2023-11-19T10:35:30;19.07;;;6.80;;
3293;SDS011;1659;51.470;6.770;2023-11-19T10:37:58;29.83;;;6.73;;
3293;SDS011;1659;51.470;6.770;2023-11-19T10:40:33;21.40;;;5.73;;
3293;SDS011;1659;51.470;6.770;2023-11-19T10:43:03;27.27;;;6.87;;
3293;SDS011;1659;51.470;6.770;2023-11-19T10:45:32;23.77;;;6.33;;
3293;SDS011;1659;51.470;6.770;2023-11-19T10:47:59;18.70;;;6.73;;
3293;SDS011;1659;51.470;6.770;2023-11-19T10:50:28;24.17;;;7.60;;
3293;SDS011;1659;51.470;6.770;2023-11-19T10:52:55;26.70;;;5.70;;
3293;SDS011;1659;51.470;6.770;2023-11-19T10:55:25;20.20;;;5.20;;
3293;SDS011;1659;51.470;6.770;2023-11-19T10:57:54;23.10;;;6.40;;
3293;SDS011;1659;51.470;6.770;2023-11-19T11:00:25;25.23;;;5.10;;
3293;SDS011;1659;51.470;6.770;2023-11-19T11:02:54;24.90;;;6.23;;
3293;SDS011;1659;51.470;6.770;2023-11-19T11:05:22;30.07;;;9.00;;
3293;SDS011;1659;51.470;6.770;2023-11-19T11:07:52;22.20;;;7.10;;
3293;SDS011;1659;51.470;6.770;2023-11-19T11:10:21;17.47;;;5.77;;
3293;SDS011;1659;51.470;6.770;2023-11-19T11:12:51;24.47;;;6.37;;
3293;SDS011;1659;51.470;6.770;2023-11-19T11:15:22;16.43;;;5.40;;
3293;SDS011;1659;51.470;6.770;2023-11-19T11:17:54;16.73;;;5.90;;
3293;SDS011;1659;51.470;6.770;2023-11-19T11:20:25;34.57;;;7.50;;
3293;SDS011;1659;51.470;6.770;2023-11-19T11:22:55;18.67;;;5.37;;
3293;SDS011;1659;51.470;6.770;2023-11-19T11:25:38;23.50;;;5.77;;
3293;SDS011;1659;51.470;6.770;2023-11-19T11:28:16;29.20;;;6.33;;
3293;SDS011;1659;51.470;6.770;2023-11-19T11:30:55;15.03;;;5.27;;
3293;SDS011;1659;51.470;6.770;2023-11-19T11:33:44;26.40;;;5.90;;
3293;SDS011;1659;51.470;6.770;2023-11-19T11:36:28;27.57;;;5.57;;
3293;SDS011;1659;51.470;6.770;2023-11-19T11:39:01;21.00;;;6.47;;
3293;SDS011;1659;51.470;6.770;2023-11-19T11:41:32;23.63;;;4.73;;
3293;SDS011;1659;51.470;6.770;2023-11-19T11:43:59;16.93;;;5.50;;
3293;SDS011;1659;51.470;6.770;2023-11-19T11:49:28;13.10;;;4.37;;
3293;SDS011;1659;51.470;6.770;2023-11-19T11:52:02;12.73;;;5.00;;
3293;SDS011;1659;51.470;6.770;2023-11-19T11:54:29;35.10;;;4.90;;
3293;SDS011;1659;51.470;6.770;2023-11-19T11:57:04;25.13;;;4.63;;
3293;SDS011;1659;51.470;6.770;2023-11-19T11:59:36;16.60;;;5.10;;
3293;SDS011;1659;51.470;6.770;2023-11-19T12:02:04;19.03;;;5.60;;
3293;SDS011;1659;51.470;6.770;2023-11-19T12:04:35;16.47;;;4.60;;
3293;SDS011;1659;51.470;6.770;2023-11-19T12:07:03;28.67;;;5.10;;
3293;SDS011;1659;51.470;6.770;2023-11-19T12:09:31;25.83;;;5.20;;
3293;SDS011;1659;51.470;6.770;2023-11-19T12:12:07;18.57;;;5.20;;
3293;SDS011;1659;51.470;6.770;2023-11-19T12:14:59;15.20;;;4.57;;
3293;SDS011;1659;51.470;6.770;2023-11-19T12:17:36;15.07;;;5.40;;
3293;SDS011;1659;51.470;6.770;2023-11-19T12:20:06;18.33;;;5.20;;
3293;SDS011;1659;51.470;6.770;2023-11-19T12:22:34;15.87;;;4.60;;
3293;SDS011;1659;51.470;6.770;2023-11-19T12:25:02;13.40;;;6.50;;
3293;SDS011;1659;51.470;6.770;2023-11-19T12:27:30;19.70;;;6.97;;
3293;SDS011;1659;51.470;6.770;2023-11-19T12:29:58;26.40;;;6.13;;
3293;SDS011;1659;51.470;6.770;2023-11-19T12:32:25;18.50;;;4.83;;
3293;SDS011;1659;51.470;6.770;2023-11-19T12:34:52;11.07;;;4.50;;
3293;SDS011;1659;51.470;6.770;2023-11-19T12:37:20;20.87;;;5.37;;
3293;SDS011;1659;51.470;6.770;2023-11-19T12:39:46;17.50;;;4.87;;
3293;SDS011;1659;51.470;6.770;2023-11-19T12:42:13;11.40;;;3.53;;
3293;SDS011;1659;51.470;6.770;2023-11-19T12:44:49;14.57;;;4.00;;
3293;SDS011;1659;51.470;6.770;2023-11-19T12:47:21;16.43;;;7.13;;
3293;SDS011;1659;51.470;6.770;2023-11-19T12:49:55;20.00;;;7.80;;
3293;SDS011;1659;51.470;6.770;2023-11-19T12:52:23;20.30;;;7.10;;
3293;SDS011;1659;51.470;6.770;2023-11-19T12:54:50;17.67;;;5.73;;
3293;SDS011;1659;51.470;6.770;2023-11-19T12:57:17;15.63;;;4.53;;
3293;SDS011;1659;51.470;6.770;2023-11-19T12:59:54;27.63;;;5.20;;
3293;SDS011;1659;51.470;6.770;2023-11-19T13:02:21;11.80;;;4.93;;
3293;SDS011;1659;51.470;6.770;2023-11-19T13:04:49;11.90;;;3.93;;
3293;SDS011;1659;51.470;6.770;2023-11-19T13:07:20;12.60;;;3.40;;
3293;SDS011;1659;51.470;6.770;2023-11-19T13:09:48;12.70;;;4.10;;
3293;SDS011;1659;51.470;6.770;2023-11-19T13:12:15;11.50;;;3.03;;
3293;SDS011;1659;51.470;6.770;2023-11-19T13:14:42;23.33;;;4.10;;
3293;SDS011;1659;51.470;6.770;2023-11-19T13:17:12;13.70;;;4.30;;
3293;SDS011;1659;51.470;6.770;2023-11-19T13:19:39;16.33;;;5.40;;
3293;SDS011;1659;51.470;6.770;2023-11-19T13:22:06;9.73;;;4.47;;
3293;SDS011;1659;51.470;6.770;2023-11-19T13:24:33;13.47;;;4.60;;
3293;SDS011;1659;51.470;6.770;2023-11-19T13:27:01;17.40;;;4.53;;
3293;SDS011;1659;51.470;6.770;2023-11-19T13:29:29;16.77;;;4.10;;
3293;SDS011;1659;51.470;6.770;2023-11-19T13:31:55;14.00;;;3.80;;
3293;SDS011;1659;51.470;6.770;2023-11-19T13:34:23;14.70;;;4.20;;
3293;SDS011;1659;51.470;6.770;2023-11-19T13:36:49;12.43;;;4.00;;
3293;SDS011;1659;51.470;6.770;2023-11-19T13:39:16;16.30;;;4.10;;
3293;SDS011;1659;51.470;6.770;2023-11-19T13:41:48;11.93;;;3.93;;
3293;SDS011;1659;51.470;6.770;2023-11-19T13:44:17;10.40;;;3.80;;
3293;SDS011;1659;51.470;6.770;2023-11-19T13:46:44;20.10;;;4.50;;
3293;SDS011;1659;51.470;6.770;2023-11-19T13:49:10;16.27;;;4.20;;
3293;SDS011;1659;51.470;6.770;2023-11-19T13:51:37;20.97;;;5.77;;
3293;SDS011;1659;51.470;6.770;2023-11-19T13:54:04;13.80;;;4.00;;
3293;SDS011;1659;51.470;6.770;2023-11-19T13:56:30;17.27;;;4.87;;
3293;SDS011;1659;51.470;6.770;2023-11-19T13:58:57;15.43;;;4.67;;
3293;SDS011;1659;51.470;6.770;2023-11-19T14:01:25;16.47;;;4.77;;
3293;SDS011;1659;51.470;6.770;2023-11-19T14:03:52;20.23;;;4.17;;
3293;SDS011;1659;51.470;6.770;2023-11-19T14:06:19;11.83;;;4.13;;
3293;SDS011;1659;51.470;6.770;2023-11-19T14:08:45;14.23;;;5.10;;
3293;SDS011;1659;51.470;6.770;2023-11-19T14:11:12;20.50;;;6.20;;
3293;SDS011;1659;51.470;6.770;2023-11-19T14:13:38;15.20;;;4.33;;
3293;SDS011;1659;51.470;6.770;2023-11-19T14:16:05;17.63;;;4.10;;
3293;SDS011;1659;51.470;6.770;2023-11-19T14:18:35;14.00;;;4.63;;
3293;SDS011;1659;51.470;6.770;2023-11-19T14:21:01;20.83;;;5.17;;
3293;SDS011;1659;51.470;6.770;2023-11-19T14:23:30;14.33;;;4.50;;
3293;SDS011;1659;51.470;6.770;2023-11-19T14:25:56;30.93;;;5.70;;
3293;SDS011;1659;51.470;6.770;2023-11-19T14:28:23;17.47;;;4.30;;
3293;SDS011;1659;51.470;6.770;2023-11-19T14:30:51;21.87;;;6.50;;
3293;SDS011;1659;51.470;6.770;2023-11-19T14:33:21;18.93;;;5.13;;
3293;SDS011;1659;51.470;6.770;2023-11-19T14:35:50;21.80;;;6.70;;
3293;SDS011;1659;51.470;6.770;2023-11-19T14:38:16;17.13;;;4.80;;
3293;SDS011;1659;51.470;6.770;2023-11-19T14:40:44;25.93;;;4.87;;
3293;SDS011;1659;51.470;6.770;2023-11-19T14:43:10;9.57;;;3.83;;
3293;SDS011;1659;51.470;6.770;2023-11-19T14:45:37;11.73;;;4.57;;
3293;SDS011;1659;51.470;6.770;2023-11-19T14:48:05;14.33;;;4.20;;
3293;SDS011;1659;51.470;6.770;2023-11-19T14:50:34;16.17;;;4.73;;
3293;SDS011;1659;51.470;6.770;2023-11-19T14:53:02;20.97;;;5.20;;
3293;SDS011;1659;51.470;6.770;2023-11-19T14:55:29;21.10;;;6.10;;
3293;SDS011;1659;51.470;6.770;2023-11-19T14:57:55;16.53;;;4.70;;
3293;SDS011;1659;51.470;6.770;2023-11-19T15:00:22;16.50;;;6.37;;
3293;SDS011;1659;51.470;6.770;2023-11-19T15:02:50;20.37;;;4.70;;
3293;SDS011;1659;51.470;6.770;2023-11-19T15:05:17;15.30;;;3.67;;
3293;SDS011;1659;51.470;6.770;2023-11-19T15:07:44;19.67;;;4.70;;
3293;SDS011;1659;51.470;6.770;2023-11-19T15:10:12;15.27;;;5.40;;